createdAt,value
2018-07-10T00:00:40.274Z,1004.99
2018-07-10T00:01:20.820Z,1004.99
2018-07-10T00:02:01.354Z,1004.93
2018-07-10T00:02:41.864Z,1004.95
2018-07-10T00:03:22.389Z,1004.91
2018-07-10T00:04:02.937Z,1004.92
2018-07-10T00:04:43.461Z,1004.91
2018-07-10T00:05:23.985Z,1004.96
2018-07-10T00:06:04.509Z,1004.88
2018-07-10T00:06:45.037Z,1004.89
2018-07-10T00:07:25.566Z,1004.89
2018-07-10T00:08:06.155Z,1004.94
2018-07-10T00:08:46.637Z,1004.92
2018-07-10T00:09:27.156Z,1004.88
2018-07-10T00:10:07.702Z,1004.89
2018-07-10T00:10:48.222Z,1004.87
2018-07-10T00:11:28.751Z,1004.91
2018-07-10T00:12:09.363Z,1004.87
2018-07-10T00:12:49.824Z,1004.83
2018-07-10T00:13:30.360Z,1004.86
2018-07-10T00:14:10.881Z,1004.85
2018-07-10T00:14:51.423Z,1004.87
2018-07-10T00:15:31.953Z,1004.87
2018-07-10T00:16:12.463Z,1004.84
2018-07-10T00:16:52.986Z,1004.86
2018-07-10T00:17:33.506Z,1004.88
2018-07-10T00:18:14.026Z,1004.87
2018-07-10T00:18:54.548Z,1004.83
2018-07-10T00:19:35.080Z,1004.87
2018-07-10T00:20:15.596Z,1004.86
2018-07-10T00:20:56.127Z,1004.87
2018-07-10T00:21:36.667Z,1004.88
2018-07-10T00:22:17.191Z,1004.83
2018-07-10T00:22:57.715Z,1004.87
2018-07-10T00:23:38.241Z,1004.88
2018-07-10T00:24:18.752Z,1004.9
2018-07-10T00:24:59.309Z,1004.9
2018-07-10T00:25:39.808Z,1004.88
2018-07-10T00:26:20.326Z,1004.88
2018-07-10T00:27:00.836Z,1004.89
2018-07-10T00:27:41.352Z,1004.88
2018-07-10T00:28:21.878Z,1004.8
2018-07-10T00:29:02.408Z,1004.83
2018-07-10T00:29:42.927Z,1004.81
2018-07-10T00:30:23.448Z,1004.84
2018-07-10T00:31:03.969Z,1004.87
2018-07-10T00:31:44.495Z,1004.83
2018-07-10T00:32:25.024Z,1004.79
2018-07-10T00:33:05.550Z,1004.84
2018-07-10T00:33:46.058Z,1004.84
2018-07-10T00:34:26.583Z,1004.81
2018-07-10T00:35:07.112Z,1004.81
2018-07-10T00:35:47.639Z,1004.83
2018-07-10T00:36:28.255Z,1004.82
2018-07-10T00:37:08.792Z,1004.86
2018-07-10T00:37:49.339Z,1004.81
2018-07-10T00:38:29.864Z,1004.82
2018-07-10T00:39:10.398Z,1004.83
2018-07-10T00:39:50.894Z,1004.82
2018-07-10T00:40:31.424Z,1004.8
2018-07-10T00:41:12.017Z,1004.8
2018-07-10T00:41:52.602Z,1004.79
2018-07-10T00:42:33.088Z,1004.77
2018-07-10T00:43:13.623Z,1004.81
2018-07-10T00:43:54.155Z,1004.82
2018-07-10T00:44:34.698Z,1004.81
2018-07-10T00:45:15.209Z,1004.77
2018-07-10T00:45:55.725Z,1004.75
2018-07-10T00:46:36.248Z,1004.78
2018-07-10T00:47:16.782Z,1004.75
2018-07-10T00:47:57.288Z,1004.76
2018-07-10T00:48:37.812Z,1004.78
2018-07-10T00:49:18.349Z,1004.77
2018-07-10T00:49:58.870Z,1004.77
2018-07-10T00:50:39.395Z,1004.72
2018-07-10T00:51:19.929Z,1004.8
2018-07-10T00:52:00.438Z,1004.78
2018-07-10T00:52:40.969Z,1004.77
2018-07-10T00:53:21.509Z,1004.75
2018-07-10T00:54:02.032Z,1004.74
2018-07-10T00:54:42.585Z,1004.76
2018-07-10T00:55:23.092Z,1004.78
2018-07-10T00:56:03.621Z,1004.75
2018-07-10T00:56:44.144Z,1004.76
2018-07-10T00:57:24.689Z,1004.84
2018-07-10T00:58:05.193Z,1004.74
2018-07-10T00:58:45.727Z,1004.77
2018-07-10T00:59:26.242Z,1004.72
2018-07-10T01:00:06.741Z,1004.75
2018-07-10T01:00:47.286Z,1004.71
2018-07-10T01:01:27.822Z,1004.74
2018-07-10T01:02:08.362Z,1004.73
2018-07-10T01:02:48.890Z,1004.69
2018-07-10T01:03:29.428Z,1004.7
2018-07-10T01:04:09.956Z,1004.71
2018-07-10T01:04:50.488Z,1004.74
2018-07-10T01:05:31.015Z,1004.69
2018-07-10T01:06:11.544Z,1004.68
2018-07-10T01:06:52.074Z,1004.7
2018-07-10T01:07:32.594Z,1004.68
2018-07-10T01:08:13.122Z,1004.7
2018-07-10T01:08:53.653Z,1004.66
2018-07-10T01:09:34.180Z,1004.71
2018-07-10T01:10:14.698Z,1004.67
2018-07-10T01:10:55.236Z,1004.67
2018-07-10T01:11:35.758Z,1004.67
2018-07-10T01:12:16.282Z,1004.64
2018-07-10T01:12:56.816Z,1004.68
2018-07-10T01:13:37.334Z,1004.65
2018-07-10T01:14:17.860Z,1004.68
2018-07-10T01:14:58.396Z,1004.65
2018-07-10T01:15:38.929Z,1004.64
2018-07-10T01:16:19.444Z,1004.65
2018-07-10T01:16:59.988Z,1004.67
2018-07-10T01:17:40.514Z,1004.66
2018-07-10T01:18:21.039Z,1004.63
2018-07-10T01:19:01.558Z,1004.71
2018-07-10T01:19:42.087Z,1004.69
2018-07-10T01:20:22.601Z,1004.7
2018-07-10T01:21:03.140Z,1004.7
2018-07-10T01:21:43.670Z,1004.69
2018-07-10T01:22:24.177Z,1004.71
2018-07-10T01:23:04.720Z,1004.71
2018-07-10T01:23:45.206Z,1004.67
2018-07-10T01:24:25.728Z,1004.66
2018-07-10T01:25:06.261Z,1004.66
2018-07-10T01:25:46.802Z,1004.68
2018-07-10T01:26:27.317Z,1004.65
2018-07-10T01:27:07.844Z,1004.65
2018-07-10T01:27:48.367Z,1004.66
2018-07-10T01:28:28.887Z,1004.66
2018-07-10T01:29:09.420Z,1004.64
2018-07-10T01:29:49.937Z,1004.6
2018-07-10T01:30:30.472Z,1004.65
2018-07-10T01:31:11.006Z,1004.64
2018-07-10T01:31:51.533Z,1004.64
2018-07-10T01:32:32.073Z,1004.62
2018-07-10T01:33:12.592Z,1004.59
2018-07-10T01:33:53.183Z,1004.61
2018-07-10T01:34:33.645Z,1004.58
2018-07-10T01:35:14.171Z,1004.6
2018-07-10T01:35:54.709Z,1004.59
2018-07-10T01:36:35.229Z,1004.58
2018-07-10T01:37:15.740Z,1004.57
2018-07-10T01:37:56.269Z,1004.55
2018-07-10T01:38:36.797Z,1004.53
2018-07-10T01:39:17.314Z,1004.55
2018-07-10T01:39:57.834Z,1004.56
2018-07-10T01:40:38.358Z,1004.54
2018-07-10T01:41:18.879Z,1004.51
2018-07-10T01:41:59.400Z,1004.56
2018-07-10T01:42:39.918Z,1004.56
2018-07-10T01:43:20.440Z,1004.55
2018-07-10T01:44:00.970Z,1004.55
2018-07-10T01:44:41.493Z,1004.52
2018-07-10T01:45:22.002Z,1004.51
2018-07-10T01:46:02.523Z,1004.53
2018-07-10T01:46:43.046Z,1004.55
2018-07-10T01:47:23.577Z,1004.55
2018-07-10T01:48:04.105Z,1004.54
2018-07-10T01:48:44.635Z,1004.51
2018-07-10T01:49:25.164Z,1004.5
2018-07-10T01:50:05.678Z,1004.53
2018-07-10T01:50:46.198Z,1004.52
2018-07-10T01:51:26.725Z,1004.51
2018-07-10T01:52:07.243Z,1004.52
2018-07-10T01:52:47.773Z,1004.51
2018-07-10T01:53:28.297Z,1004.51
2018-07-10T01:54:08.804Z,1004.52
2018-07-10T01:54:49.342Z,1004.46
2018-07-10T01:55:29.892Z,1004.48
2018-07-10T01:56:10.417Z,1004.5
2018-07-10T01:56:50.929Z,1004.48
2018-07-10T01:57:31.465Z,1004.48
2018-07-10T01:58:12.001Z,1004.49
2018-07-10T01:58:52.520Z,1004.49
2018-07-10T01:59:33.049Z,1004.47
2018-07-10T02:00:13.569Z,1004.46
2018-07-10T02:00:54.094Z,1004.43
2018-07-10T02:01:34.621Z,1004.43
2018-07-10T02:02:15.157Z,1004.43
2018-07-10T02:02:55.679Z,1004.41
2018-07-10T02:03:36.205Z,1004.4
2018-07-10T02:04:16.731Z,1004.43
2018-07-10T02:04:57.282Z,1004.44
2018-07-10T02:05:37.819Z,1004.4
2018-07-10T02:06:18.348Z,1004.34
2018-07-10T02:06:58.873Z,1004.33
2018-07-10T02:07:40.264Z,1004.32
2018-07-10T02:08:20.782Z,1004.37
2018-07-10T02:09:01.311Z,1004.34
2018-07-10T02:09:41.834Z,1004.34
2018-07-10T02:10:22.355Z,1004.37
2018-07-10T02:11:02.879Z,1004.32
2018-07-10T02:11:43.399Z,1004.37
2018-07-10T02:12:23.908Z,1004.34
2018-07-10T02:13:04.435Z,1004.34
2018-07-10T02:13:44.950Z,1004.35
2018-07-10T02:14:25.494Z,1004.36
2018-07-10T02:15:06.011Z,1004.31
2018-07-10T02:15:46.549Z,1004.34
2018-07-10T02:16:27.071Z,1004.31
2018-07-10T02:17:07.606Z,1004.34
2018-07-10T02:17:48.128Z,1004.29
2018-07-10T02:18:28.644Z,1004.33
2018-07-10T02:19:09.170Z,1004.32
2018-07-10T02:19:49.676Z,1004.32
2018-07-10T02:20:30.201Z,1004.31
2018-07-10T02:21:10.722Z,1004.32
2018-07-10T02:21:51.240Z,1004.3
2018-07-10T02:22:31.794Z,1004.27
2018-07-10T02:23:12.322Z,1004.3
2018-07-10T02:23:52.855Z,1004.31
2018-07-10T02:24:33.374Z,1004.29
2018-07-10T02:25:13.891Z,1004.34
2018-07-10T02:25:54.421Z,1004.24
2018-07-10T02:26:34.950Z,1004.29
2018-07-10T02:27:15.475Z,1004.25
2018-07-10T02:27:55.997Z,1004.21
2018-07-10T02:28:36.522Z,1004.25
2018-07-10T02:29:17.052Z,1004.17
2018-07-10T02:29:57.578Z,1004.19
2018-07-10T02:30:38.104Z,1004.21
2018-07-10T02:31:18.621Z,1004.13
2018-07-10T02:31:59.151Z,1004.19
2018-07-10T02:32:39.677Z,1004.21
2018-07-10T02:33:20.203Z,1004.16
2018-07-10T02:34:00.724Z,1004.21
2018-07-10T02:34:41.244Z,1004.14
2018-07-10T02:35:21.771Z,1004.21
2018-07-10T02:36:02.286Z,1004.22
2018-07-10T02:36:42.825Z,1004.2
2018-07-10T02:37:23.350Z,1004.16
2018-07-10T02:38:03.865Z,1004.16
2018-07-10T02:38:44.412Z,1004.17
2018-07-10T02:39:24.939Z,1004.17
2018-07-10T02:40:05.483Z,1004.14
2018-07-10T02:40:46.017Z,1004.2
2018-07-10T02:41:26.565Z,1004.14
2018-07-10T02:42:07.069Z,1004.13
2018-07-10T02:42:47.596Z,1004.14
2018-07-10T02:43:28.106Z,1004.14
2018-07-10T02:44:08.602Z,1004.16
2018-07-10T02:44:49.123Z,1004.17
2018-07-10T02:45:29.649Z,1004.11
2018-07-10T02:46:10.178Z,1004.14
2018-07-10T02:46:50.701Z,1004.13
2018-07-10T02:47:31.233Z,1004.16
2018-07-10T02:48:11.776Z,1004.11
2018-07-10T02:48:52.303Z,1004.14
2018-07-10T02:49:32.824Z,1004.11
2018-07-10T02:50:13.342Z,1004.15
2018-07-10T02:50:53.877Z,1004.14
2018-07-10T02:51:34.404Z,1004.16
2018-07-10T02:52:14.932Z,1004.15
2018-07-10T02:52:55.449Z,1004.13
2018-07-10T02:53:35.971Z,1004.13
2018-07-10T02:54:16.493Z,1004.14
2018-07-10T02:54:57.016Z,1004.14
2018-07-10T02:55:37.549Z,1004.13
2018-07-10T02:56:18.079Z,1004.12
2018-07-10T02:56:58.599Z,1004.14
2018-07-10T02:57:39.112Z,1004.1
2018-07-10T02:58:19.646Z,1004.14
2018-07-10T02:59:00.163Z,1004.1
2018-07-10T02:59:40.713Z,1004.12
2018-07-10T03:00:21.239Z,1004.11
2018-07-10T03:01:01.765Z,1004.14
2018-07-10T03:01:42.304Z,1004.14
2018-07-10T03:02:22.817Z,1004.14
2018-07-10T03:03:03.363Z,1004.14
2018-07-10T03:03:43.883Z,1004.12
2018-07-10T03:04:24.452Z,1004.14
2018-07-10T03:05:04.976Z,1004.17
2018-07-10T03:05:45.603Z,1004.17
2018-07-10T03:06:26.035Z,1004.17
2018-07-10T03:07:06.554Z,1004.13
2018-07-10T03:07:47.080Z,1004.18
2018-07-10T03:08:27.618Z,1004.15
2018-07-10T03:09:08.150Z,1004.16
2018-07-10T03:09:48.659Z,1004.12
2018-07-10T03:10:29.170Z,1004.17
2018-07-10T03:11:09.704Z,1004.14
2018-07-10T03:11:50.235Z,1004.13
2018-07-10T03:12:30.759Z,1004.16
2018-07-10T03:13:11.279Z,1004.12
2018-07-10T03:13:51.791Z,1004.16
2018-07-10T03:14:32.306Z,1004.21
2018-07-10T03:15:12.840Z,1004.19
2018-07-10T03:15:53.357Z,1004.16
2018-07-10T03:16:33.886Z,1004.17
2018-07-10T03:17:14.416Z,1004.18
2018-07-10T03:17:54.945Z,1004.16
2018-07-10T03:18:35.476Z,1004.17
2018-07-10T03:19:15.997Z,1004.15
2018-07-10T03:19:56.526Z,1004.16
2018-07-10T03:20:37.031Z,1004.18
2018-07-10T03:21:17.556Z,1004.19
2018-07-10T03:21:58.075Z,1004.1
2018-07-10T03:22:38.602Z,1004.12
2018-07-10T03:23:19.133Z,1004.13
2018-07-10T03:23:59.654Z,1004.13
2018-07-10T03:24:40.184Z,1004.11
2018-07-10T03:25:20.710Z,1004.12
2018-07-10T03:26:01.232Z,1004.12
2018-07-10T03:26:41.747Z,1004.07
2018-07-10T03:27:22.269Z,1004.1
2018-07-10T03:28:02.805Z,1004.07
2018-07-10T03:28:43.320Z,1004.07
2018-07-10T03:29:23.838Z,1004
2018-07-10T03:30:04.351Z,1004.03
2018-07-10T03:30:44.866Z,1004.02
2018-07-10T03:31:25.376Z,1004.01
2018-07-10T03:32:05.909Z,1004.02
2018-07-10T03:32:46.434Z,1003.99
2018-07-10T03:33:26.951Z,1004.01
2018-07-10T03:34:07.482Z,1004.01
2018-07-10T03:34:48.060Z,1003.97
2018-07-10T03:35:28.583Z,1004.01
2018-07-10T03:36:09.134Z,1004.01
2018-07-10T03:36:49.670Z,1003.96
2018-07-10T03:37:30.201Z,1003.98
2018-07-10T03:38:10.719Z,1003.99
2018-07-10T03:38:51.237Z,1004.02
2018-07-10T03:39:31.764Z,1004.01
2018-07-10T03:40:12.300Z,1004.02
2018-07-10T03:40:52.823Z,1004.05
2018-07-10T03:41:33.329Z,1004.01
2018-07-10T03:42:13.869Z,1004.05
2018-07-10T03:42:54.396Z,1004.06
2018-07-10T03:43:34.919Z,1004.06
2018-07-10T03:44:15.623Z,1003.98
2018-07-10T03:44:56.160Z,1004.01
2018-07-10T03:45:36.695Z,1004.05
2018-07-10T03:46:17.216Z,1004.07
2018-07-10T03:46:57.725Z,1004.06
2018-07-10T03:47:38.233Z,1004.06
2018-07-10T03:48:18.769Z,1004.06
2018-07-10T03:48:59.283Z,1004.07
2018-07-10T03:49:39.826Z,1004.06
2018-07-10T03:50:20.341Z,1004.05
2018-07-10T03:51:00.858Z,1004.06
2018-07-10T03:51:41.384Z,1004.03
2018-07-10T03:52:21.907Z,1004.05
2018-07-10T03:53:02.459Z,1004.08
2018-07-10T03:53:42.968Z,1004.03
2018-07-10T03:54:23.510Z,1004.05
2018-07-10T03:55:04.035Z,1004.08
2018-07-10T03:55:44.567Z,1004.08
2018-07-10T03:56:25.109Z,1004.06
2018-07-10T03:57:05.618Z,1004.07
2018-07-10T03:57:46.141Z,1004.1
2018-07-10T03:58:26.673Z,1004.07
2018-07-10T03:59:07.223Z,1004.08
2018-07-10T03:59:47.741Z,1004.03
2018-07-10T04:00:28.335Z,1004.06
2018-07-10T04:01:08.857Z,1004.04
2018-07-10T04:01:49.382Z,1004.09
2018-07-10T04:02:29.921Z,1004.05
2018-07-10T04:03:10.474Z,1004.03
2018-07-10T04:03:51.000Z,1003.98
2018-07-10T04:04:31.528Z,1003.97
2018-07-10T04:05:12.125Z,1003.99
2018-07-10T04:05:52.653Z,1003.98
2018-07-10T04:06:33.180Z,1003.98
2018-07-10T04:07:13.789Z,1003.96
2018-07-10T04:07:54.344Z,1003.96
2018-07-10T04:08:34.868Z,1003.99
2018-07-10T04:09:15.403Z,1003.98
2018-07-10T04:09:55.927Z,1003.95
2018-07-10T04:10:36.451Z,1003.94
2018-07-10T04:11:16.987Z,1003.92
2018-07-10T04:11:57.501Z,1003.98
2018-07-10T04:12:38.020Z,1003.95
2018-07-10T04:13:18.548Z,1003.94
2018-07-10T04:13:59.070Z,1003.95
2018-07-10T04:14:39.603Z,1003.96
2018-07-10T04:15:20.128Z,1003.95
2018-07-10T04:16:00.668Z,1003.96
2018-07-10T04:16:41.211Z,1003.96
2018-07-10T04:17:21.739Z,1003.98
2018-07-10T04:18:02.268Z,1003.9
2018-07-10T04:18:42.804Z,1003.91
2018-07-10T04:19:23.367Z,1003.95
2018-07-10T04:20:03.891Z,1003.92
2018-07-10T04:20:44.419Z,1003.89
2018-07-10T04:21:24.936Z,1003.92
2018-07-10T04:22:05.465Z,1003.85
2018-07-10T04:22:45.980Z,1003.9
2018-07-10T04:23:26.523Z,1003.9
2018-07-10T04:24:07.038Z,1003.92
2018-07-10T04:24:47.722Z,1003.9
2018-07-10T04:25:28.249Z,1003.9
2018-07-10T04:26:08.772Z,1003.9
2018-07-10T04:26:49.295Z,1003.89
2018-07-10T04:27:29.808Z,1003.86
2018-07-10T04:28:10.333Z,1003.87
2018-07-10T04:28:50.878Z,1003.87
2018-07-10T04:29:31.363Z,1003.89
2018-07-10T04:30:11.892Z,1003.9
2018-07-10T04:30:52.396Z,1003.91
2018-07-10T04:31:32.937Z,1003.9
2018-07-10T04:32:14.147Z,1003.92
2018-07-10T04:32:54.662Z,1003.89
2018-07-10T04:33:35.175Z,1003.91
2018-07-10T04:34:15.703Z,1003.93
2018-07-10T04:34:56.228Z,1003.91
2018-07-10T04:35:36.752Z,1003.94
2018-07-10T04:36:17.281Z,1003.89
2018-07-10T04:36:57.805Z,1003.89
2018-07-10T04:37:38.334Z,1003.9
2018-07-10T04:38:18.852Z,1003.94
2018-07-10T04:38:59.369Z,1003.9
2018-07-10T04:39:39.895Z,1003.88
2018-07-10T04:40:20.411Z,1003.89
2018-07-10T04:41:00.934Z,1003.87
2018-07-10T04:41:41.454Z,1003.86
2018-07-10T04:42:22.030Z,1003.87
2018-07-10T04:43:02.504Z,1003.96
2018-07-10T04:43:43.036Z,1003.91
2018-07-10T04:44:23.614Z,1003.97
2018-07-10T04:45:04.114Z,1003.94
2018-07-10T04:45:44.632Z,1003.94
2018-07-10T04:46:25.154Z,1003.93
2018-07-10T04:47:05.664Z,1003.88
2018-07-10T04:47:46.196Z,1003.9
2018-07-10T04:48:26.715Z,1003.91
2018-07-10T04:49:07.278Z,1003.96
2018-07-10T04:49:47.759Z,1003.91
2018-07-10T04:50:28.290Z,1003.91
2018-07-10T04:51:08.791Z,1003.89
2018-07-10T04:51:49.313Z,1003.92
2018-07-10T04:52:29.829Z,1003.92
2018-07-10T04:53:10.360Z,1003.91
2018-07-10T04:53:50.876Z,1003.93
2018-07-10T04:54:31.418Z,1003.92
2018-07-10T04:55:11.950Z,1003.95
2018-07-10T04:55:52.466Z,1003.92
2018-07-10T04:56:32.999Z,1003.91
2018-07-10T04:57:13.515Z,1003.91
2018-07-10T04:57:54.046Z,1003.89
2018-07-10T04:58:34.573Z,1003.89
2018-07-10T04:59:15.102Z,1003.96
2018-07-10T04:59:55.631Z,1003.92
2018-07-10T05:00:36.158Z,1003.95
2018-07-10T05:01:16.766Z,1003.95
2018-07-10T05:01:57.300Z,1003.95
2018-07-10T05:02:37.852Z,1003.94
2018-07-10T05:03:18.387Z,1003.9
2018-07-10T05:03:58.912Z,1003.94
2018-07-10T05:04:39.446Z,1003.96
2018-07-10T05:05:19.970Z,1003.96
2018-07-10T05:06:00.477Z,1003.92
2018-07-10T05:06:41.001Z,1003.93
2018-07-10T05:07:21.531Z,1003.92
2018-07-10T05:08:02.062Z,1003.85
2018-07-10T05:08:42.579Z,1003.9
2018-07-10T05:09:23.126Z,1003.9
2018-07-10T05:10:03.660Z,1003.9
2018-07-10T05:10:44.197Z,1003.89
2018-07-10T05:11:24.728Z,1003.88
2018-07-10T05:12:05.308Z,1003.92
2018-07-10T05:12:45.777Z,1003.89
2018-07-10T05:13:26.279Z,1003.87
2018-07-10T05:14:06.801Z,1003.9
2018-07-10T05:14:47.329Z,1003.92
2018-07-10T05:15:27.853Z,1003.94
2018-07-10T05:16:08.359Z,1003.95
2018-07-10T05:16:48.876Z,1003.94
2018-07-10T05:17:29.461Z,1003.97
2018-07-10T05:18:09.948Z,1003.99
2018-07-10T05:18:50.453Z,1003.99
2018-07-10T05:19:30.990Z,1003.96
2018-07-10T05:20:11.528Z,1003.98
2018-07-10T05:20:52.078Z,1003.97
2018-07-10T05:21:32.610Z,1003.92
2018-07-10T05:22:13.132Z,1003.92
2018-07-10T05:22:53.664Z,1003.94
2018-07-10T05:23:34.179Z,1003.91
2018-07-10T05:24:14.702Z,1003.93
2018-07-10T05:24:55.220Z,1003.9
2018-07-10T05:25:35.742Z,1003.92
2018-07-10T05:26:16.273Z,1003.93
2018-07-10T05:26:56.781Z,1003.9
2018-07-10T05:27:37.293Z,1003.97
2018-07-10T05:28:17.811Z,1003.97
2018-07-10T05:28:58.545Z,1003.98
2018-07-10T05:29:38.837Z,1003.97
2018-07-10T05:30:19.362Z,1003.98
2018-07-10T05:30:59.895Z,1004
2018-07-10T05:31:40.406Z,1003.96
2018-07-10T05:32:20.947Z,1003.96
2018-07-10T05:34:39.343Z,1003.95
2018-07-10T05:35:19.858Z,1003.92
2018-07-10T05:36:00.380Z,1003.94
2018-07-10T05:36:40.929Z,1003.96
2018-07-10T05:37:21.489Z,1003.88
2018-07-10T05:38:02.035Z,1003.94
2018-07-10T05:38:42.562Z,1003.87
2018-07-10T05:39:23.100Z,1003.95
2018-07-10T05:40:03.615Z,1003.99
2018-07-10T05:40:44.141Z,1003.93
2018-07-10T05:41:24.659Z,1003.9
2018-07-10T05:42:05.177Z,1003.92
2018-07-10T05:42:45.690Z,1003.9
2018-07-10T05:43:26.208Z,1003.93
2018-07-10T05:44:06.735Z,1003.95
2018-07-10T05:44:47.245Z,1004
2018-07-10T05:45:27.759Z,1003.92
2018-07-10T05:46:08.290Z,1003.92
2018-07-10T05:46:48.798Z,1003.93
2018-07-10T05:47:29.333Z,1003.95
2018-07-10T05:48:09.862Z,1003.95
2018-07-10T05:48:50.421Z,1003.91
2018-07-10T05:49:30.965Z,1003.92
2018-07-10T05:50:11.497Z,1003.96
2018-07-10T05:50:51.984Z,1003.96
2018-07-10T05:51:32.501Z,1003.95
2018-07-10T05:52:13.059Z,1003.96
2018-07-10T05:52:53.603Z,1003.94
2018-07-10T05:53:34.118Z,1003.96
2018-07-10T05:54:14.637Z,1003.95
2018-07-10T05:54:55.151Z,1003.9
2018-07-10T05:55:35.665Z,1003.96
2018-07-10T05:56:16.236Z,1003.96
2018-07-10T05:56:56.676Z,1003.92
2018-07-10T05:57:37.183Z,1003.9
2018-07-10T05:58:17.657Z,1003.97
2018-07-10T05:58:58.135Z,1003.92
2018-07-10T05:59:38.684Z,1003.93
2018-07-10T06:00:19.197Z,1003.96
2018-07-10T06:00:59.673Z,1003.94
2018-07-10T06:01:40.177Z,1003.92
2018-07-10T06:02:20.634Z,1003.91
2018-07-10T06:03:01.174Z,1003.89
2018-07-10T06:03:41.685Z,1003.85
2018-07-10T06:04:22.168Z,1003.89
2018-07-10T06:05:02.664Z,1003.91
2018-07-10T06:05:43.201Z,1003.85
2018-07-10T06:06:23.648Z,1003.85
2018-07-10T06:07:04.138Z,1003.89
2018-07-10T06:07:44.665Z,1003.93
2018-07-10T06:08:25.149Z,1003.92
2018-07-10T06:09:05.613Z,1003.91
2018-07-10T06:09:46.370Z,1003.92
2018-07-10T06:10:27.020Z,1003.92
2018-07-10T06:11:07.377Z,1003.94
2018-07-10T06:11:47.876Z,1003.99
2018-07-10T06:12:28.369Z,1003.94
2018-07-10T06:13:08.863Z,1003.94
2018-07-10T06:13:49.351Z,1003.95
2018-07-10T06:14:29.876Z,1003.95
2018-07-10T06:15:10.400Z,1003.93
2018-07-10T06:15:50.925Z,1003.91
2018-07-10T06:16:31.503Z,1003.9
2018-07-10T06:17:11.949Z,1003.95
2018-07-10T06:17:52.477Z,1003.95
2018-07-10T06:18:33.000Z,1003.91
2018-07-10T06:19:13.548Z,1003.92
2018-07-10T06:19:54.098Z,1003.93
2018-07-10T06:20:34.563Z,1003.87
2018-07-10T06:21:15.035Z,1003.87
2018-07-10T06:21:55.530Z,1003.9
2018-07-10T06:22:35.997Z,1003.9
2018-07-10T06:23:16.507Z,1003.84
2018-07-10T06:23:57.032Z,1003.89
2018-07-10T06:24:37.578Z,1003.86
2018-07-10T06:25:18.094Z,1003.89
2018-07-10T06:25:58.589Z,1003.88
2018-07-10T06:26:39.125Z,1003.83
2018-07-10T06:27:19.615Z,1003.87
2018-07-10T06:28:00.167Z,1003.86
2018-07-10T06:28:40.668Z,1003.87
2018-07-10T06:29:21.233Z,1003.87
2018-07-10T06:30:01.754Z,1003.9
2018-07-10T06:30:42.207Z,1003.94
2018-07-10T06:31:22.742Z,1003.89
2018-07-10T06:32:03.232Z,1003.92
2018-07-10T06:32:43.771Z,1003.96
2018-07-10T06:33:24.215Z,1003.93
2018-07-10T06:34:04.730Z,1003.9
2018-07-10T06:34:45.200Z,1003.94
2018-07-10T06:35:25.729Z,1003.89
2018-07-10T06:36:06.265Z,1003.9
2018-07-10T06:36:46.772Z,1003.92
2018-07-10T06:37:27.314Z,1003.89
2018-07-10T06:38:07.840Z,1003.92
2018-07-10T06:38:48.359Z,1003.91
2018-07-10T06:39:28.883Z,1003.85
2018-07-10T06:40:09.430Z,1003.87
2018-07-10T06:40:49.963Z,1003.9
2018-07-10T06:41:30.484Z,1003.88
2018-07-10T06:42:10.974Z,1003.84
2018-07-10T06:42:51.501Z,1003.85
2018-07-10T06:43:32.012Z,1003.84
2018-07-10T06:44:12.537Z,1003.85
2018-07-10T06:44:53.052Z,1003.84
2018-07-10T06:45:33.580Z,1003.86
2018-07-10T06:46:14.085Z,1003.87
2018-07-10T06:46:54.613Z,1003.84
2018-07-10T06:47:35.195Z,1003.86
2018-07-10T06:48:15.698Z,1003.87
2018-07-10T06:48:56.251Z,1003.94
2018-07-10T06:49:36.780Z,1003.9
2018-07-10T06:50:17.315Z,1003.85
2018-07-10T06:50:57.837Z,1003.89
2018-07-10T06:51:38.340Z,1003.88
2018-07-10T06:52:18.980Z,1003.93
2018-07-10T06:52:59.598Z,1003.89
2018-07-10T06:53:39.956Z,1003.94
2018-07-10T06:54:20.426Z,1003.95
2018-07-10T06:55:00.958Z,1003.92
2018-07-10T06:55:41.562Z,1003.93
2018-07-10T06:56:22.120Z,1003.92
2018-07-10T06:57:02.642Z,1003.89
2018-07-10T06:57:43.151Z,1003.94
2018-07-10T06:58:23.697Z,1003.94
2018-07-10T06:59:04.201Z,1003.97
2018-07-10T06:59:44.707Z,1003.92
2018-07-10T07:00:25.234Z,1003.93
2018-07-10T07:01:05.751Z,1003.97
2018-07-10T07:01:46.259Z,1003.89
2018-07-10T07:02:26.783Z,1003.89
2018-07-10T07:03:07.289Z,1003.89
2018-07-10T07:03:47.823Z,1003.88
2018-07-10T07:04:28.323Z,1003.86
2018-07-10T07:05:08.846Z,1003.94
2018-07-10T07:05:49.383Z,1003.94
2018-07-10T07:06:29.907Z,1003.93
2018-07-10T07:07:10.430Z,1003.91
2018-07-10T07:07:50.966Z,1003.96
2018-07-10T07:08:31.489Z,1003.93
2018-07-10T07:09:12.020Z,1003.93
2018-07-10T07:09:52.542Z,1003.91
2018-07-10T07:10:33.071Z,1003.93
2018-07-10T07:11:13.591Z,1003.89
2018-07-10T07:11:54.125Z,1003.91
2018-07-10T07:12:34.666Z,1003.97
2018-07-10T07:13:15.187Z,1003.95
2018-07-10T07:13:55.709Z,1003.93
2018-07-10T07:14:36.247Z,1003.93
2018-07-10T07:15:16.808Z,1003.92
2018-07-10T07:15:57.337Z,1003.92
2018-07-10T07:16:37.854Z,1003.9
2018-07-10T07:17:18.372Z,1003.93
2018-07-10T07:17:58.915Z,1003.92
2018-07-10T07:18:39.439Z,1003.9
2018-07-10T07:19:19.960Z,1003.93
2018-07-10T07:20:00.475Z,1003.9
2018-07-10T07:20:41.019Z,1003.92
2018-07-10T07:21:21.546Z,1003.89
2018-07-10T07:22:02.070Z,1003.92
2018-07-10T07:22:42.600Z,1003.9
2018-07-10T07:23:23.108Z,1003.88
2018-07-10T07:24:03.630Z,1003.88
2018-07-10T07:24:44.106Z,1003.88
2018-07-10T07:25:24.635Z,1003.9
2018-07-10T07:26:05.138Z,1003.84
2018-07-10T07:26:45.690Z,1003.84
2018-07-10T07:27:26.252Z,1003.83
2018-07-10T07:28:06.757Z,1003.82
2018-07-10T07:28:47.299Z,1003.79
2018-07-10T07:29:27.819Z,1003.76
2018-07-10T07:30:08.321Z,1003.75
2018-07-10T07:30:48.820Z,1003.78
2018-07-10T07:31:29.340Z,1003.8
2018-07-10T07:32:09.863Z,1003.8
2018-07-10T07:32:50.418Z,1003.78
2018-07-10T07:33:30.932Z,1003.8
2018-07-10T07:34:11.461Z,1003.79
2018-07-10T07:34:51.985Z,1003.76
2018-07-10T07:35:32.500Z,1003.74
2018-07-10T07:36:13.035Z,1003.75
2018-07-10T07:36:53.580Z,1003.74
2018-07-10T07:37:34.104Z,1003.8
2018-07-10T07:38:14.641Z,1003.78
2018-07-10T07:38:55.180Z,1003.87
2018-07-10T07:39:35.714Z,1003.86
2018-07-10T07:40:16.253Z,1003.97
2018-07-10T07:40:56.797Z,1004.04
2018-07-10T07:41:37.311Z,1004.04
2018-07-10T07:42:17.825Z,1004.02
2018-07-10T07:42:58.375Z,1004.08
2018-07-10T07:43:38.959Z,1004.1
2018-07-10T07:44:19.466Z,1004.04
2018-07-10T07:45:00.015Z,1004.08
2018-07-10T07:45:40.555Z,1004.04
2018-07-10T07:46:21.057Z,1004.07
2018-07-10T07:47:01.572Z,1004.05
2018-07-10T07:47:42.145Z,1004.01
2018-07-10T07:48:22.655Z,1004.11
2018-07-10T07:49:03.161Z,1004.14
2018-07-10T07:49:43.686Z,1004.13
2018-07-10T07:50:24.215Z,1004.21
2018-07-10T07:51:04.735Z,1004.11
2018-07-10T07:51:45.277Z,1004.22
2018-07-10T07:52:25.790Z,1004.17
2018-07-10T07:53:06.217Z,1004.13
2018-07-10T07:53:46.730Z,1004.15
2018-07-10T07:54:27.309Z,1004.17
2018-07-10T07:55:07.778Z,1004.08
2018-07-10T07:55:48.300Z,1004.12
2018-07-10T07:56:28.838Z,1004.1
2018-07-10T07:57:09.373Z,1004.19
2018-07-10T07:57:49.914Z,1004.2
2018-07-10T07:58:30.468Z,1004.11
2018-07-10T07:59:10.943Z,1004.14
2018-07-10T07:59:51.461Z,1004.17
2018-07-10T08:00:32.051Z,1004.16
2018-07-10T08:01:12.518Z,1004.2
2018-07-10T08:01:53.085Z,1004.12
2018-07-10T08:02:33.590Z,1004.1
2018-07-10T08:03:14.113Z,1004.18
2018-07-10T08:03:54.648Z,1004.13
2018-07-10T08:04:35.201Z,1004.14
2018-07-10T08:05:15.723Z,1004.13
2018-07-10T08:05:56.287Z,1004.15
2018-07-10T08:06:36.831Z,1004.13
2018-07-10T08:07:17.348Z,1004.1
2018-07-10T08:07:57.871Z,1004.16
2018-07-10T08:08:38.410Z,1004.17
2018-07-10T08:09:18.928Z,1004.17
2018-07-10T08:09:59.453Z,1004.08
2018-07-10T08:10:39.980Z,1004.1
2018-07-10T08:11:20.494Z,1004.05
2018-07-10T08:12:01.028Z,1004.05
2018-07-10T08:12:41.530Z,1004.09
2018-07-10T08:13:22.049Z,1004.04
2018-07-10T08:14:02.578Z,1004.09